EST,Max TemperatureF,Mean TemperatureF,Min TemperatureF,Max Dew PointF,MeanDew PointF,Min DewpointF,Max Humidity, Mean Humidity, Min Humidity, Max Sea Level PressureIn, Mean Sea Level PressureIn, Min Sea Level PressureIn, Max VisibilityMiles, Mean VisibilityMiles, Min VisibilityMiles, Max Wind SpeedMPH, Mean Wind SpeedMPH, Max Gust SpeedMPH,PrecipitationIn, CloudCover, Events, WindDirDegrees
2014-1-1,50,38,26,36,30,25,92,71,50,30.37,30.27,30.12,10,9,4,9,2,12,0.00,2,,135
2014-1-2,50,38,25,48,38,12,93,74,55,30.19,29.96,29.80,10,6,2,15,3,30,0.26,8,Rain,7
2014-1-3,33,26,19,15,11,8,84,60,36,30.46,30.37,30.24,10,10,10,17,5,25,0.00,2,,345
2014-1-4,37,28,19,27,17,11,77,59,40,30.42,30.33,30.21,10,10,10,14,5,20,0.00,5,,108
2014-1-5,52,44,35,49,38,28,92,81,70,30.19,29.97,29.74,10,8,2,15,6,24,0.10,8,Rain,122
2014-1-6,42,27,11,39,15,-3,89,67,45,30.47,30.17,29.86,10,10,6,10,4,25,0.03,5,Rain,-1
2014-1-7,23,14,5,6,-1,-6,76,56,36,30.60,30.53,30.49,10,10,10,10,2,16,0.00,0,,347
2014-1-8,45,28,10,17,10,6,84,52,20,30.56,30.50,30.44,10,10,10,6,0,8,0.00,0,,245
2014-1-9,49,36,23,37,25,12,92,63,34,30.51,30.43,30.37,10,10,6,12,5,17,0.02,6,Rain,106
2014-1-10,66,52,39,48,43,35,92,70,48,30.33,30.18,29.98,10,5,2,12,5,17,0.27,8,Rain,103
2014-1-11,80,65,50,61,52,32,83,56,29,30.00,29.80,29.69,10,6,0,14,3,25,1.04,6,Rain-Thunderstorm,154
2014-1-12,59,47,34,38,34,30,89,61,33,30.18,30.10,29.98,10,10,7,7,1,14,0.00,0,,200
2014-1-13,56,44,32,46,40,31,100,74,47,30.16,30.01,29.88,10,8,2,15,2,21,0.36,5,Rain,94
2014-1-14,58,45,32,48,42,31,93,67,40,30.02,29.91,29.81,10,8,2,8,1,13,0.08,4,Rain,330
2014-1-15,47,38,28,34,26,13,92,62,31,30.10,30.03,29.97,10,10,10,10,1,22,0.00,3,,285
2014-1-16,46,34,21,19,16,8,84,53,22,30.14,30.06,29.96,10,10,10,8,1,13,0.00,0,,177
2014-1-17,50,37,24,29,21,14,88,59,29,30.13,30.00,29.93,10,10,10,9,2,21,0.00,2,,170
2014-1-18,46,34,21,18,12,4,71,45,18,30.23,30.10,29.98,10,10,10,9,2,14,0.00,1,,178
2014-1-19,52,39,26,28,24,18,85,59,33,30.10,30.04,29.93,10,10,10,8,2,17,0.00,1,,-1
2014-1-20,64,43,22,30,25,20,88,55,22,30.07,29.98,29.88,10,10,10,8,1,13,0.00,0,,30
2014-1-21,48,36,23,31,23,11,85,65,45,30.08,29.90,29.75,10,10,10,13,4,25,0.00,4,,338
2014-1-22,35,25,15,11,2,-4,62,43,23,30.20,30.14,30.08,10,10,7,14,4,20,0.00,1,,345
2014-1-23,37,27,16,15,8,-4,74,54,34,30.60,30.38,30.19,10,10,10,13,4,21,0.00,1,,337
2014-1-24,32,20,8,5,-1,-10,73,45,17,30.68,30.53,30.31,10,10,9,10,2,15,0.00,0,,353
2014-1-25,45,26,7,17,10,2,83,55,27,30.28,30.03,29.89,10,10,9,13,2,21,0.00,3,,-1
2014-1-26,57,39,21,30,24,17,84,58,32,30.03,29.95,29.89,10,10,7,9,1,17,0.00,1,,160
2014-1-27,57,42,27,36,23,1,89,57,25,30.17,29.98,29.85,10,10,10,15,5,25,0.00,4,,348
2014-1-28,27,23,19,16,11,-1,84,58,32,30.29,30.23,30.17,10,6,0,14,5,22,0.17,6,Fog-Snow,342
2014-1-29,29,20,10,10,0,-3,74,51,27,30.41,30.34,30.28,10,10,10,10,4,20,0.00,0,,346
2014-1-30,41,20,-2,16,7,-5,88,59,30,30.39,30.30,30.20,10,10,7,10,2,15,0.00,0,,104
2014-1-31,54,36,17,22,16,11,84,52,19,30.27,30.19,30.14,10,10,8,6,1,9,0.00,0,,355